Time;durP1;ratioP1;P1;durP2;ratioP2;P2;SDS_P1;SDS_P2;PMS_P1;PMS_P2;Temp;Humidity;BMP_temperature;BMP_pressure;BME280_temperature;BME280_humidity;BME280_pressure;Samples;Min_cycle;Max_cycle;Signal;HPM_P1;HPM_P2
2023/08/26 00:02:08;;;;;;;3.10;1.70;;;;;;;-128.00;-1.00;-1.00;18877;294;7505014;-31
2023/08/26 00:04:35;;;;;;;3.10;2.10;;;;;;;-128.00;-1.00;-1.00;18894;294;7505587;-36
2023/08/26 00:07:01;;;;;;;3.30;1.90;;;;;;;-128.00;-1.00;-1.00;18879;294;7504489;-36
2023/08/26 00:09:27;;;;;;;4.60;2.40;;;;;;;-128.00;-1.00;-1.00;18901;293;7505547;-32
2023/08/26 00:11:54;;;;;;;4.20;1.70;;;;;;;-128.00;-1.00;-1.00;18875;294;7505300;-33
2023/08/26 00:14:20;;;;;;;4.80;2.00;;;;;;;-128.00;-1.00;-1.00;18909;294;7505353;-36
2023/08/26 00:16:46;;;;;;;1.90;1.60;;;;;;;-128.00;-1.00;-1.00;18866;287;7504375;-35
2023/08/26 00:19:12;;;;;;;4.20;2.30;;;;;;;-128.00;-1.00;-1.00;18907;294;7504702;-35
2023/08/26 00:21:38;;;;;;;3.60;2.60;;;;;;;-128.00;-1.00;-1.00;18898;318;7504152;-36
2023/08/26 00:24:05;;;;;;;2.70;2.00;;;;;;;-128.00;-1.00;-1.00;18890;306;7504231;-33
2023/08/26 00:26:31;;;;;;;4.40;2.20;;;;;;;-128.00;-1.00;-1.00;18897;346;7504350;-32
2023/08/26 00:28:57;;;;;;;2.70;2.00;;;;;;;-128.00;-1.00;-1.00;18864;294;7505421;-32
2023/08/26 00:31:24;;;;;;;2.10;1.90;;;;;;;-128.00;-1.00;-1.00;18873;287;7505237;-36
2023/08/26 00:33:50;;;;;;;2.40;2.20;;;;;;;-128.00;-1.00;-1.00;18885;294;7505004;-32
2023/08/26 00:36:16;;;;;;;3.60;2.80;;;;;;;-128.00;-1.00;-1.00;18888;293;7505243;-32
2023/08/26 01:18:16;;;;;;;3.10;2.70;;;;;;;-98.54;16.83;19762.69;98283;295;1543663;-30
2023/08/26 01:20:44;;;;;;;2.90;2.00;;;;;;;-128.00;-1.00;-1.00;59520;296;7504729;-36
2023/08/26 01:23:16;;;;;;;3.80;2.80;;;;;;;-128.00;-1.00;-1.00;18882;347;7504630;-36
2023/08/26 01:25:41;;;;;;;6.90;2.20;;;;;;;-128.00;-1.00;-1.00;18493;294;7504175;-32
2023/08/26 01:28:07;;;;;;;4.30;3.10;;;;;;;-128.00;-1.00;-1.00;18486;294;7504289;-36
2023/08/26 01:30:33;;;;;;;7.00;3.60;;;;;;;-128.00;-1.00;-1.00;18463;295;7504521;-31
2023/08/26 01:33:10;;;;;;;7.70;3.60;;;;;;;-128.00;-1.00;-1.00;18464;295;7506261;-31
2023/08/26 01:35:37;;;;;;;10.70;4.20;;;;;;;-128.00;-1.00;-1.00;18485;294;7505965;-35
2023/08/26 01:38:03;;;;;;;4.20;3.60;;;;;;;-128.00;-1.00;-1.00;18466;294;7505930;-32
2023/08/26 01:40:29;;;;;;;2.70;2.50;;;;;;;-128.00;-1.00;-1.00;18466;294;7505754;-31
2023/08/26 01:42:55;;;;;;;3.50;2.80;;;;;;;-128.00;-1.00;-1.00;18494;295;7504349;-31
2023/08/26 01:45:21;;;;;;;4.00;2.30;;;;;;;-128.00;-1.00;-1.00;18471;294;7506273;-31
2023/08/26 01:47:47;;;;;;;3.60;2.90;;;;;;;-128.00;-1.00;-1.00;18473;294;7505125;-31
2023/08/26 01:50:13;;;;;;;7.90;2.50;;;;;;;-128.00;-1.00;-1.00;18484;314;7504639;-31
2023/08/26 01:52:40;;;;;;;3.50;2.40;;;;;;;-128.00;-1.00;-1.00;18460;295;7504946;-32
2023/08/26 01:55:07;;;;;;;3.50;2.80;;;;;;;-128.00;-1.00;-1.00;18456;294;7505853;-35
2023/08/26 01:57:33;;;;;;;4.70;2.60;;;;;;;-128.00;-1.00;-1.00;18459;296;7504961;-31
2023/08/26 01:59:58;;;;;;;4.80;3.50;;;;;;;-128.00;-1.00;-1.00;18452;294;7504940;-31
2023/08/26 02:02:25;;;;;;;5.80;3.30;;;;;;;-128.00;-1.00;-1.00;18865;339;7504635;-35
2023/08/26 02:04:51;;;;;;;7.90;2.90;;;;;;;-128.00;-1.00;-1.00;18888;294;7504848;-32
2023/08/26 02:07:17;;;;;;;3.20;2.40;;;;;;;-128.00;-1.00;-1.00;18865;310;7504779;-35
2023/08/26 02:09:44;;;;;;;5.00;2.90;;;;;;;-128.00;-1.00;-1.00;18869;294;7504699;-31
2023/08/26 02:12:10;;;;;;;4.20;2.60;;;;;;;-128.00;-1.00;-1.00;18881;294;7504432;-35
2023/08/26 02:14:36;;;;;;;4.20;3.50;;;;;;;-128.00;-1.00;-1.00;18878;294;7505306;-31
2023/08/26 02:17:02;;;;;;;3.20;2.40;;;;;;;-128.00;-1.00;-1.00;18884;294;7505245;-32
2023/08/26 02:19:28;;;;;;;11.50;3.60;;;;;;;-128.00;-1.00;-1.00;18854;295;7504585;-31
2023/08/26 02:21:55;;;;;;;3.00;2.10;;;;;;;-128.00;-1.00;-1.00;18884;326;7504657;-35
2023/08/26 02:24:21;;;;;;;3.40;2.60;;;;;;;-128.00;-1.00;-1.00;18874;339;7505239;-36
2023/08/26 02:26:47;;;;;;;10.50;3.60;;;;;;;-128.00;-1.00;-1.00;18897;330;7505086;-36
2023/08/26 02:29:14;;;;;;;6.70;3.00;;;;;;;-128.00;-1.00;-1.00;18885;287;7504423;-36
2023/08/26 02:31:40;;;;;;;3.70;2.90;;;;;;;-128.00;-1.00;-1.00;18890;295;7504069;-36
2023/08/26 02:34:06;;;;;;;3.90;2.50;;;;;;;-128.00;-1.00;-1.00;18863;295;7504366;-31
2023/08/26 02:36:32;;;;;;;6.80;2.60;;;;;;;-128.00;-1.00;-1.00;18877;287;7504749;-31
2023/08/26 02:38:59;;;;;;;5.00;3.00;;;;;;;-128.00;-1.00;-1.00;18895;287;7504745;-31
2023/08/26 02:41:25;;;;;;;3.60;2.40;;;;;;;-128.00;-1.00;-1.00;18485;295;7505649;-31
2023/08/26 02:43:51;;;;;;;7.70;3.50;;;;;;;-128.00;-1.00;-1.00;18869;346;7504494;-32
2023/08/26 02:46:17;;;;;;;8.80;2.90;;;;;;;-128.00;-1.00;-1.00;18883;295;7504430;-35
2023/08/26 02:48:43;;;;;;;3.70;2.50;;;;;;;-128.00;-1.00;-1.00;18883;295;7505197;-35
2023/08/26 02:51:10;;;;;;;2.30;1.80;;;;;;;-128.00;-1.00;-1.00;18878;295;7505631;-31
2023/08/26 02:53:36;;;;;;;3.50;3.10;;;;;;;-128.00;-1.00;-1.00;18885;347;7506043;-32
2023/08/26 02:56:03;;;;;;;4.70;1.90;;;;;;;-128.00;-1.00;-1.00;18488;295;7504371;-35
2023/08/26 02:58:28;;;;;;;3.00;2.20;;;;;;;-128.00;-1.00;-1.00;18483;294;7506755;-35
2023/08/26 03:00:55;;;;;;;2.50;1.70;;;;;;;-128.00;-1.00;-1.00;18529;295;7506326;-35
2023/08/26 03:03:20;;;;;;;3.40;2.40;;;;;;;-128.00;-1.00;-1.00;18473;295;7505736;-35
2023/08/26 03:05:46;;;;;;;2.80;2.20;;;;;;;-128.00;-1.00;-1.00;18468;295;7504659;-36
2023/08/26 03:08:12;;;;;;;4.70;2.20;;;;;;;-128.00;-1.00;-1.00;18482;295;7504477;-32
2023/08/26 03:10:38;;;;;;;6.30;3.80;;;;;;;-128.00;-1.00;-1.00;18481;295;7505232;-35
2023/08/26 03:13:06;;;;;;;4.70;4.30;;;;;;;-128.00;-1.00;-1.00;18450;346;7505118;-31
2023/08/26 03:15:32;;;;;;;3.60;3.20;;;;;;;-128.00;-1.00;-1.00;18477;295;7504482;-31
2023/08/26 03:17:58;;;;;;;11.40;3.20;;;;;;;-128.00;-1.00;-1.00;18883;295;7507468;-35
2023/08/26 03:20:24;;;;;;;7.50;3.20;;;;;;;-128.00;-1.00;-1.00;18866;287;7504514;-35
2023/08/26 03:22:50;;;;;;;3.40;2.70;;;;;;;-128.00;-1.00;-1.00;18903;295;7503974;-32
2023/08/26 03:25:17;;;;;;;7.00;4.30;;;;;;;-128.00;-1.00;-1.00;18869;303;7504856;-35
2023/08/26 03:27:43;;;;;;;4.10;2.90;;;;;;;-128.00;-1.00;-1.00;18859;295;7504531;-36
2023/08/26 03:30:10;;;;;;;5.60;3.40;;;;;;;-128.00;-1.00;-1.00;18876;295;7507995;-35
2023/08/26 03:32:36;;;;;;;3.80;3.20;;;;;;;-128.00;-1.00;-1.00;18457;283;7505222;-35
2023/08/26 03:35:02;;;;;;;8.80;2.80;;;;;;;-128.00;-1.00;-1.00;18868;300;7505242;-31
2023/08/26 03:37:28;;;;;;;9.20;3.60;;;;;;;-128.00;-1.00;-1.00;18475;295;7504384;-35
2023/08/26 03:39:54;;;;;;;4.20;3.20;;;;;;;-128.00;-1.00;-1.00;18890;295;7504965;-31
2023/08/26 03:42:20;;;;;;;4.40;3.10;;;;;;;-128.00;-1.00;-1.00;18879;295;7504579;-31
2023/08/26 03:44:46;;;;;;;3.10;2.80;;;;;;;-128.00;-1.00;-1.00;18868;295;7504261;-34
2023/08/26 03:47:13;;;;;;;3.60;2.70;;;;;;;-128.00;-1.00;-1.00;18922;295;7504562;-31
2023/08/26 03:49:39;;;;;;;3.10;2.60;;;;;;;-128.00;-1.00;-1.00;18892;295;7504800;-32
2023/08/26 03:52:05;;;;;;;3.90;3.20;;;;;;;-128.00;-1.00;-1.00;18886;295;7504291;-32
2023/08/26 03:54:31;;;;;;;4.30;3.40;;;;;;;-128.00;-1.00;-1.00;18897;295;7504793;-31
2023/08/26 03:56:59;;;;;;;2.90;2.60;;;;;;;-128.00;-1.00;-1.00;18471;295;7504246;-31
2023/08/26 03:59:25;;;;;;;3.40;3.10;;;;;;;-128.00;-1.00;-1.00;18499;295;7504471;-31
2023/08/26 04:01:51;;;;;;;6.40;3.70;;;;;;;-128.00;-1.00;-1.00;18901;318;7504880;-35
2023/08/26 04:04:17;;;;;;;5.00;3.00;;;;;;;-128.00;-1.00;-1.00;18883;294;7504454;-34
2023/08/26 04:06:43;;;;;;;5.80;3.00;;;;;;;-128.00;-1.00;-1.00;18870;295;7504845;-30
2023/08/26 04:09:10;;;;;;;4.80;2.70;;;;;;;-128.00;-1.00;-1.00;18909;295;7505156;-35
2023/08/26 04:11:36;;;;;;;2.50;2.20;;;;;;;-128.00;-1.00;-1.00;18500;295;7505728;-35
2023/08/26 04:14:01;;;;;;;2.20;2.00;;;;;;;-128.00;-1.00;-1.00;18466;295;7504753;-32
2023/08/26 04:16:28;;;;;;;2.90;1.70;;;;;;;-128.00;-1.00;-1.00;18482;295;7504847;-33
2023/08/26 04:18:54;;;;;;;3.80;3.40;;;;;;;-128.00;-1.00;-1.00;18495;295;7504589;-35
2023/08/26 04:21:20;;;;;;;4.00;3.20;;;;;;;-128.00;-1.00;-1.00;18465;339;7505832;-32
2023/08/26 04:23:45;;;;;;;4.50;2.90;;;;;;;-128.00;-1.00;-1.00;18462;346;7505475;-32
2023/08/26 04:26:12;;;;;;;6.20;4.30;;;;;;;-128.00;-1.00;-1.00;18851;295;7504356;-35
2023/08/26 04:28:38;;;;;;;6.10;4.00;;;;;;;-128.00;-1.00;-1.00;18863;295;7504932;-35
2023/08/26 04:31:07;;;;;;;5.40;3.30;;;;;;;-128.00;-1.00;-1.00;18897;295;7505578;-36
2023/08/26 04:33:33;;;;;;;5.00;3.20;;;;;;;-128.00;-1.00;-1.00;18461;298;7504885;-36
2023/08/26 04:35:59;;;;;;;4.40;3.70;;;;;;;-128.00;-1.00;-1.00;18861;295;7504407;-36
2023/08/26 04:38:25;;;;;;;14.00;4.50;;;;;;;-128.00;-1.00;-1.00;18876;295;7506204;-31
2023/08/26 04:40:52;;;;;;;4.50;3.00;;;;;;;-128.00;-1.00;-1.00;18876;295;7504145;-35
2023/08/26 04:43:18;;;;;;;3.40;3.00;;;;;;;-128.00;-1.00;-1.00;18879;295;7505371;-36
2023/08/26 04:45:44;;;;;;;4.10;3.10;;;;;;;-128.00;-1.00;-1.00;18891;295;7504820;-32
2023/08/26 04:48:10;;;;;;;3.80;2.80;;;;;;;-128.00;-1.00;-1.00;18890;295;7504347;-36
2023/08/26 04:50:37;;;;;;;2.70;2.20;;;;;;;-128.00;-1.00;-1.00;18880;335;7504941;-36
2023/08/26 04:53:03;;;;;;;5.70;2.40;;;;;;;-128.00;-1.00;-1.00;18881;318;7505078;-34
2023/08/26 04:55:29;;;;;;;3.10;2.80;;;;;;;-128.00;-1.00;-1.00;18465;347;7504585;-32
2023/08/26 04:57:56;;;;;;;2.90;2.20;;;;;;;-128.00;-1.00;-1.00;18465;295;7505030;-32
2023/08/26 05:00:21;;;;;;;3.40;3.10;;;;;;;-128.00;-1.00;-1.00;18458;295;7506634;-33
2023/08/26 05:02:47;;;;;;;3.30;2.60;;;;;;;-128.00;-1.00;-1.00;18471;295;7505057;-36
2023/08/26 05:05:13;;;;;;;4.40;2.90;;;;;;;-128.00;-1.00;-1.00;18498;335;7505799;-36
2023/08/26 05:07:38;;;;;;;3.60;2.60;;;;;;;-128.00;-1.00;-1.00;18490;306;7504781;-32
2023/08/26 05:10:05;;;;;;;5.40;2.70;;;;;;;-128.00;-1.00;-1.00;18467;295;7505157;-36
2023/08/26 05:12:31;;;;;;;3.50;2.30;;;;;;;-128.00;-1.00;-1.00;18455;347;7506143;-37
2023/08/26 05:14:57;;;;;;;4.10;3.00;;;;;;;-128.00;-1.00;-1.00;18509;310;7506705;-31
2023/08/26 05:17:22;;;;;;;3.40;2.90;;;;;;;-128.00;-1.00;-1.00;18494;335;7504225;-36
2023/08/26 05:19:50;;;;;;;15.20;2.50;;;;;;;-128.00;-1.00;-1.00;18480;288;7504758;-31
2023/08/26 05:22:15;;;;;;;3.10;2.80;;;;;;;-128.00;-1.00;-1.00;18499;318;7505107;-32
2023/08/26 05:24:41;;;;;;;3.70;3.10;;;;;;;-128.00;-1.00;-1.00;18467;295;7504274;-34
2023/08/26 05:27:07;;;;;;;4.60;2.40;;;;;;;-128.00;-1.00;-1.00;18479;287;7504931;-36
2023/08/26 05:29:33;;;;;;;7.40;3.00;;;;;;;-128.00;-1.00;-1.00;18473;289;7504588;-36
2023/08/26 05:31:59;;;;;;;8.00;2.40;;;;;;;-128.00;-1.00;-1.00;18457;295;7504545;-36
2023/08/26 05:34:25;;;;;;;6.70;2.70;;;;;;;-128.00;-1.00;-1.00;18508;295;7504679;-36
2023/08/26 05:36:51;;;;;;;2.30;2.10;;;;;;;-128.00;-1.00;-1.00;18459;295;7505430;-32
2023/08/26 05:39:16;;;;;;;3.60;2.80;;;;;;;-128.00;-1.00;-1.00;18460;346;7505012;-36
2023/08/26 05:41:42;;;;;;;2.40;2.20;;;;;;;-128.00;-1.00;-1.00;18476;322;7504357;-32
2023/08/26 05:44:08;;;;;;;6.70;2.50;;;;;;;-128.00;-1.00;-1.00;18456;310;7506108;-32
2023/08/26 05:46:34;;;;;;;3.80;3.20;;;;;;;-128.00;-1.00;-1.00;18868;295;7504958;-32
2023/08/26 05:49:00;;;;;;;3.90;2.30;;;;;;;-128.00;-1.00;-1.00;18899;295;7506436;-32
2023/08/26 05:51:27;;;;;;;3.60;2.40;;;;;;;-128.00;-1.00;-1.00;18460;296;7506055;-33
2023/08/26 05:53:53;;;;;;;4.40;2.50;;;;;;;-128.00;-1.00;-1.00;18468;310;7504877;-36
2023/08/26 05:56:19;;;;;;;4.10;3.60;;;;;;;-128.00;-1.00;-1.00;18487;347;7504146;-36
2023/08/26 05:58:44;;;;;;;2.60;2.10;;;;;;;-128.00;-1.00;-1.00;18456;347;7504195;-35
2023/08/26 06:01:10;;;;;;;3.60;2.40;;;;;;;-128.00;-1.00;-1.00;18506;295;7504646;-36
2023/08/26 06:03:36;;;;;;;2.60;1.90;;;;;;;-128.00;-1.00;-1.00;18901;295;7504492;-32
2023/08/26 06:06:03;;;;;;;6.20;2.40;;;;;;;-128.00;-1.00;-1.00;18883;295;7504172;-36
2023/08/26 06:08:29;;;;;;;2.00;1.60;;;;;;;-128.00;-1.00;-1.00;18478;322;7504760;-35
2023/08/26 06:10:55;;;;;;;2.40;2.00;;;;;;;-128.00;-1.00;-1.00;18462;339;7504141;-36
2023/08/26 06:13:21;;;;;;;3.50;1.90;;;;;;;-128.00;-1.00;-1.00;18479;335;7505453;-32
2023/08/26 06:15:53;;;;;;;2.00;1.50;;;;;;;-128.00;-1.00;-1.00;18466;295;7504481;-36
2023/08/26 06:18:19;;;;;;;3.30;2.10;;;;;;;-128.00;-1.00;-1.00;18470;343;7504319;-32
2023/08/26 06:20:49;;;;;;;3.80;2.40;;;;;;;-128.00;-1.00;-1.00;18465;295;7504993;-32
2023/08/26 06:23:14;;;;;;;2.20;1.50;;;;;;;-128.00;-1.00;-1.00;18464;306;7504557;-31
2023/08/26 06:25:54;;;;;;;2.90;1.80;;;;;;;-128.00;-1.00;-1.00;18477;295;7506379;-36
2023/08/26 06:28:19;;;;;;;4.10;2.40;;;;;;;-128.00;-1.00;-1.00;18492;295;7504286;-32
2023/08/26 06:30:45;;;;;;;4.70;2.40;;;;;;;-128.00;-1.00;-1.00;18497;295;7504998;-36
2023/08/26 06:33:12;;;;;;;7.30;2.10;;;;;;;-128.00;-1.00;-1.00;18454;295;7504355;-33
2023/08/26 06:35:37;;;;;;;2.80;2.50;;;;;;;-128.00;-1.00;-1.00;18469;295;7504807;-32
2023/08/26 06:38:03;;;;;;;4.50;1.90;;;;;;;-128.00;-1.00;-1.00;18464;287;7506491;-32
2023/08/26 06:40:33;;;;;;;2.40;1.80;;;;;;;-128.00;-1.00;-1.00;18464;295;7504814;-35
2023/08/26 06:42:59;;;;;;;6.10;1.90;;;;;;;-128.00;-1.00;-1.00;18453;295;7504568;-32
2023/08/26 06:45:24;;;;;;;6.40;2.50;;;;;;;-128.00;-1.00;-1.00;18467;295;7505988;-32
2023/08/26 06:47:50;;;;;;;2.60;1.80;;;;;;;-128.00;-1.00;-1.00;18485;335;7504914;-32
2023/08/26 06:50:16;;;;;;;5.60;1.80;;;;;;;-128.00;-1.00;-1.00;18494;339;7506088;-36
2023/08/26 06:52:42;;;;;;;1.70;1.50;;;;;;;-128.00;-1.00;-1.00;18865;295;7504640;-33
2023/08/26 06:55:09;;;;;;;3.50;2.10;;;;;;;-128.00;-1.00;-1.00;18865;335;7504702;-33
2023/08/26 06:57:38;;;;;;;2.50;1.80;;;;;;;-128.00;-1.00;-1.00;18469;295;7506013;-36
2023/08/26 07:00:05;;;;;;;1.50;1.40;;;;;;;-128.00;-1.00;-1.00;18501;294;7504692;-36
2023/08/26 07:02:31;;;;;;;2.20;1.60;;;;;;;-128.00;-1.00;-1.00;18461;318;7506028;-36
2023/08/26 07:04:57;;;;;;;9.70;3.00;;;;;;;-128.00;-1.00;-1.00;18470;330;7504858;-32
2023/08/26 07:07:22;;;;;;;3.10;2.00;;;;;;;-128.00;-1.00;-1.00;18464;295;7506144;-35
2023/08/26 07:09:48;;;;;;;3.30;1.10;;;;;;;-128.00;-1.00;-1.00;18481;295;7505979;-36
2023/08/26 07:12:14;;;;;;;9.90;1.30;;;;;;;-128.00;-1.00;-1.00;18460;295;7506352;-32
2023/08/26 07:14:40;;;;;;;7.90;1.60;;;;;;;-128.00;-1.00;-1.00;18444;295;7504571;-31
2023/08/26 07:17:06;;;;;;;2.10;1.60;;;;;;;-128.00;-1.00;-1.00;18480;295;7505761;-35
2023/08/26 07:19:32;;;;;;;4.60;1.80;;;;;;;-128.00;-1.00;-1.00;18484;295;7505172;-33
2023/08/26 07:21:58;;;;;;;2.00;1.50;;;;;;;-128.00;-1.00;-1.00;18485;346;7504609;-33
2023/08/26 07:24:24;;;;;;;2.10;1.80;;;;;;;-128.00;-1.00;-1.00;18875;347;7504475;-36
2023/08/26 07:26:50;;;;;;;2.00;1.20;;;;;;;-128.00;-1.00;-1.00;18881;295;7504989;-32
2023/08/26 07:29:16;;;;;;;3.90;2.20;;;;;;;-128.00;-1.00;-1.00;18902;295;7504557;-35
2023/08/26 07:31:42;;;;;;;4.90;1.40;;;;;;;-128.00;-1.00;-1.00;18889;295;7505237;-32
2023/08/26 07:34:09;;;;;;;3.60;1.90;;;;;;;-128.00;-1.00;-1.00;18923;304;7504948;-32
2023/08/26 07:36:35;;;;;;;2.80;2.00;;;;;;;-128.00;-1.00;-1.00;18880;295;7504898;-33
2023/08/26 07:39:01;;;;;;;2.60;1.70;;;;;;;-128.00;-1.00;-1.00;18494;295;7506252;-36
2023/08/26 07:41:27;;;;;;;2.00;1.40;;;;;;;-128.00;-1.00;-1.00;18527;295;7504672;-36
2023/08/26 07:43:53;;;;;;;3.90;1.50;;;;;;;-128.00;-1.00;-1.00;18891;295;7504438;-32
2023/08/26 07:46:22;;;;;;;2.60;1.80;;;;;;;-128.00;-1.00;-1.00;18865;295;7504558;-36
2023/08/26 07:48:51;;;;;;;1.30;1.00;;;;;;;-128.00;-1.00;-1.00;18514;339;7506548;-32
2023/08/26 07:51:17;;;;;;;1.10;0.80;;;;;;;-128.00;-1.00;-1.00;18499;295;7504086;-36
2023/08/26 07:53:43;;;;;;;2.80;1.70;;;;;;;-128.00;-1.00;-1.00;18520;295;7506080;-36
2023/08/26 07:56:09;;;;;;;10.80;1.60;;;;;;;-128.00;-1.00;-1.00;18470;295;7504841;-32
2023/08/26 07:58:34;;;;;;;2.80;1.40;;;;;;;-128.00;-1.00;-1.00;18471;322;7505128;-36
2023/08/26 08:01:01;;;;;;;1.90;1.30;;;;;;;-128.00;-1.00;-1.00;18477;295;7504157;-36
2023/08/26 08:03:27;;;;;;;2.50;2.20;;;;;;;-128.00;-1.00;-1.00;18482;295;7504275;-35
2023/08/26 08:05:53;;;;;;;4.20;1.60;;;;;;;-128.00;-1.00;-1.00;18488;330;7504425;-32
2023/08/26 08:08:18;;;;;;;2.70;1.40;;;;;;;-128.00;-1.00;-1.00;18472;330;7504478;-32
2023/08/26 08:10:44;;;;;;;1.40;1.30;;;;;;;-128.00;-1.00;-1.00;18449;339;7504329;-32
2023/08/26 08:13:10;;;;;;;2.10;1.30;;;;;;;-128.00;-1.00;-1.00;18474;295;7506118;-36
2023/08/26 08:15:36;;;;;;;2.10;1.70;;;;;;;-128.00;-1.00;-1.00;18452;295;7505812;-36
2023/08/26 08:18:03;;;;;;;2.00;1.40;;;;;;;-128.00;-1.00;-1.00;18471;295;7504280;-36
2023/08/26 08:20:30;;;;;;;2.70;1.40;;;;;;;-128.00;-1.00;-1.00;18465;295;7506528;-32
2023/08/26 08:22:56;;;;;;;4.20;1.80;;;;;;;-128.00;-1.00;-1.00;18492;295;7505133;-32
2023/08/26 08:25:22;;;;;;;4.10;2.30;;;;;;;-128.00;-1.00;-1.00;18482;330;7505533;-36
2023/08/26 08:27:48;;;;;;;3.20;1.30;;;;;;;-128.00;-1.00;-1.00;18470;283;7504911;-32
2023/08/26 08:30:13;;;;;;;3.40;1.60;;;;;;;-128.00;-1.00;-1.00;18477;295;7504752;-36
2023/08/26 08:32:39;;;;;;;3.30;1.40;;;;;;;-128.00;-1.00;-1.00;18489;295;7504508;-32
2023/08/26 08:35:06;;;;;;;1.80;1.40;;;;;;;-128.00;-1.00;-1.00;18488;306;7506203;-36
2023/08/26 08:37:33;;;;;;;4.20;2.10;;;;;;;-128.00;-1.00;-1.00;18514;347;7504935;-34
2023/08/26 08:39:59;;;;;;;1.90;1.30;;;;;;;-128.00;-1.00;-1.00;18482;295;7506211;-36
2023/08/26 08:42:25;;;;;;;4.30;1.30;;;;;;;-128.00;-1.00;-1.00;18468;295;7504567;-32
2023/08/26 08:44:51;;;;;;;4.50;1.50;;;;;;;-128.00;-1.00;-1.00;18488;295;7504882;-35
2023/08/26 08:47:16;;;;;;;1.50;1.10;;;;;;;-128.00;-1.00;-1.00;18462;302;7506293;-36
2023/08/26 08:49:43;;;;;;;2.30;1.70;;;;;;;-128.00;-1.00;-1.00;18883;295;7504842;-36
2023/08/26 08:52:09;;;;;;;2.90;1.80;;;;;;;-128.00;-1.00;-1.00;18466;295;7504937;-36
2023/08/26 08:54:35;;;;;;;4.80;2.00;;;;;;;-128.00;-1.00;-1.00;18445;295;7504810;-33
2023/08/26 08:57:03;;;;;;;1.80;0.80;;;;;;;-128.00;-1.00;-1.00;18501;295;7505059;-32
2023/08/26 08:59:30;;;;;;;9.10;4.60;;;;;;;-128.00;-1.00;-1.00;18467;295;7504743;-36
2023/08/26 09:01:58;;;;;;;1.10;1.00;;;;;;;-128.00;-1.00;-1.00;18475;295;7505378;-36
2023/08/26 09:04:24;;;;;;;0.90;0.90;;;;;;;-128.00;-1.00;-1.00;18480;330;7504642;-32
2023/08/26 09:06:50;;;;;;;2.20;1.70;;;;;;;-128.00;-1.00;-1.00;18468;295;7505151;-33
2023/08/26 09:09:16;;;;;;;1.20;0.80;;;;;;;-128.00;-1.00;-1.00;18474;299;7504987;-32
2023/08/26 09:11:42;;;;;;;6.80;1.30;;;;;;;-128.00;-1.00;-1.00;18453;295;7506000;-35
2023/08/26 09:14:08;;;;;;;1.30;0.80;;;;;;;-128.00;-1.00;-1.00;18471;295;7506666;-32
2023/08/26 09:16:38;;;;;;;4.50;1.30;;;;;;;-128.00;-1.00;-1.00;18488;295;7504601;-32
2023/08/26 09:19:08;;;;;;;8.00;1.80;;;;;;;-128.00;-1.00;-1.00;18490;295;7505388;-36
2023/08/26 09:21:33;;;;;;;2.10;1.50;;;;;;;-128.00;-1.00;-1.00;18012;288;7505902;-35
2023/08/26 09:24:00;;;;;;;1.50;1.00;;;;;;;-128.00;-1.00;-1.00;18476;295;7505738;-36
2023/08/26 09:26:26;;;;;;;2.30;0.90;;;;;;;-128.00;-1.00;-1.00;18489;295;7504947;-36
2023/08/26 09:28:52;;;;;;;1.60;1.40;;;;;;;-128.00;-1.00;-1.00;18504;299;7504682;-35
2023/08/26 09:31:19;;;;;;;1.30;1.10;;;;;;;-128.00;-1.00;-1.00;18477;339;7504626;-36
2023/08/26 09:33:49;;;;;;;2.10;1.40;;;;;;;-128.00;-1.00;-1.00;18477;295;7505397;-36
2023/08/26 09:36:15;;;;;;;;;;;;;;;-128.00;-1.00;-1.00;18469;346;7506344;-35
2023/08/26 09:38:50;;;;;;;1.80;1.00;;;;;;;-128.00;-1.00;-1.00;18863;335;7505322;-34
2023/08/26 09:41:23;;;;;;;2.80;1.20;;;;;;;-128.00;-1.00;-1.00;18478;295;7504743;-32
2023/08/26 09:43:49;;;;;;;2.90;1.50;;;;;;;-128.00;-1.00;-1.00;18477;306;7506088;-36
2023/08/26 09:46:19;;;;;;;1.40;1.10;;;;;;;-128.00;-1.00;-1.00;18513;295;7506316;-32
2023/08/26 09:48:45;;;;;;;1.90;1.40;;;;;;;-128.00;-1.00;-1.00;18483;295;7504172;-35
2023/08/26 09:51:11;;;;;;;1.50;0.90;;;;;;;-128.00;-1.00;-1.00;18499;295;7504615;-35
2023/08/26 09:53:37;;;;;;;4.40;1.40;;;;;;;-128.00;-1.00;-1.00;18492;306;7506416;-31
2023/08/26 09:56:03;;;;;;;3.50;0.90;;;;;;;-128.00;-1.00;-1.00;18479;295;7506010;-31
2023/08/26 09:58:29;;;;;;;3.40;2.10;;;;;;;-128.00;-1.00;-1.00;18495;295;7504734;-35
2023/08/26 10:00:55;;;;;;;2.50;1.20;;;;;;;-128.00;-1.00;-1.00;18454;318;7504297;-32
2023/08/26 10:03:23;;;;;;;6.30;1.70;;;;;;;-128.00;-1.00;-1.00;18471;286;7506110;-36
2023/08/26 10:05:51;;;;;;;2.30;1.80;;;;;;;-128.00;-1.00;-1.00;18482;295;7504876;-32
2023/08/26 10:08:17;;;;;;;1.20;1.10;;;;;;;-128.00;-1.00;-1.00;18476;295;7504582;-33
2023/08/26 10:10:47;;;;;;;0.80;0.50;;;;;;;-128.00;-1.00;-1.00;18453;294;7504473;-36
2023/08/26 10:13:13;;;;;;;1.00;0.70;;;;;;;-128.00;-1.00;-1.00;18460;295;7506331;-32
2023/08/26 10:15:39;;;;;;;1.00;0.90;;;;;;;-128.00;-1.00;-1.00;18466;295;7505824;-35
2023/08/26 10:18:11;;;;;;;1.50;1.40;;;;;;;-128.00;-1.00;-1.00;18860;296;7504365;-32
2023/08/26 10:20:37;;;;;;;1.90;1.40;;;;;;;-128.00;-1.00;-1.00;18459;347;7504646;-32
2023/08/26 10:23:03;;;;;;;2.10;0.80;;;;;;;-128.00;-1.00;-1.00;18487;295;7504294;-35
2023/08/26 10:25:30;;;;;;;2.40;1.50;;;;;;;-128.00;-1.00;-1.00;18478;347;7505331;-33
2023/08/26 10:27:55;;;;;;;1.40;1.20;;;;;;;-128.00;-1.00;-1.00;18475;295;7504272;-36
2023/08/26 10:30:21;;;;;;;2.40;1.20;;;;;;;-128.00;-1.00;-1.00;18471;295;7504625;-36
2023/08/26 10:32:47;;;;;;;8.40;1.00;;;;;;;-128.00;-1.00;-1.00;18465;295;7504870;-33
2023/08/26 10:35:13;;;;;;;1.60;1.40;;;;;;;-128.00;-1.00;-1.00;18505;318;7506044;-36
2023/08/26 10:37:40;;;;;;;1.60;1.00;;;;;;;-128.00;-1.00;-1.00;18466;295;7505281;-33
2023/08/26 10:40:12;;;;;;;1.40;1.00;;;;;;;-128.00;-1.00;-1.00;18457;295;7504724;-32
2023/08/26 10:42:38;;;;;;;1.90;1.20;;;;;;;-128.00;-1.00;-1.00;18484;295;7504230;-32
2023/08/26 10:45:16;;;;;;;3.60;1.70;;;;;;;-128.00;-1.00;-1.00;18476;295;7504625;-32
2023/08/26 10:47:45;;;;;;;2.40;1.50;;;;;;;-128.00;-1.00;-1.00;18490;347;7504385;-32
2023/08/26 10:50:23;;;;;;;1.30;1.20;;;;;;;-128.00;-1.00;-1.00;18514;294;7504682;-32
2023/08/26 10:52:51;;;;;;;2.00;1.40;;;;;;;-128.00;-1.00;-1.00;18472;295;7504767;-32
2023/08/26 10:55:27;;;;;;;1.50;1.40;;;;;;;-128.00;-1.00;-1.00;18486;295;7504555;-32
2023/08/26 10:58:00;;;;;;;2.70;1.00;;;;;;;-128.00;-1.00;-1.00;18448;295;7505164;-31
2023/08/26 11:00:26;;;;;;;2.10;1.90;;;;;;;-128.00;-1.00;-1.00;18475;347;7504835;-32
2023/08/26 11:02:52;;;;;;;4.50;1.10;;;;;;;-128.00;-1.00;-1.00;18472;295;7504493;-32
2023/08/26 11:05:20;;;;;;;5.30;2.90;;;;;;;-128.00;-1.00;-1.00;18470;295;7504828;-32
2023/08/26 11:07:47;;;;;;;2.50;1.30;;;;;;;-128.00;-1.00;-1.00;18461;347;7504485;-36
2023/08/26 11:10:28;;;;;;;1.70;1.60;;;;;;;-128.00;-1.00;-1.00;18473;330;7505974;-32
2023/08/26 11:12:54;;;;;;;2.80;1.00;;;;;;;-128.00;-1.00;-1.00;18497;287;7504586;-36
2023/08/26 11:15:20;;;;;;;1.80;1.50;;;;;;;-128.00;-1.00;-1.00;18469;295;7504470;-32
2023/08/26 11:17:49;;;;;;;1.70;1.00;;;;;;;-128.00;-1.00;-1.00;18459;295;7504183;-36
2023/08/26 11:20:19;;;;;;;6.50;0.80;;;;;;;-128.00;-1.00;-1.00;18464;295;7504436;-32
2023/08/26 11:22:45;;;;;;;2.30;2.20;;;;;;;-128.00;-1.00;-1.00;18468;297;7506202;-32
2023/08/26 11:25:14;;;;;;;3.10;1.50;;;;;;;-128.00;-1.00;-1.00;18493;339;7504982;-35
2023/08/26 11:27:40;;;;;;;1.60;0.90;;;;;;;-128.00;-1.00;-1.00;18514;295;7505044;-37
2023/08/26 11:30:10;;;;;;;1.90;1.70;;;;;;;-128.00;-1.00;-1.00;18468;298;7504438;-32
2023/08/26 11:32:36;;;;;;;1.80;1.50;;;;;;;-128.00;-1.00;-1.00;18523;295;7504660;-36
2023/08/26 11:35:06;;;;;;;2.90;1.60;;;;;;;-128.00;-1.00;-1.00;18497;295;7506172;-32
2023/08/26 11:37:34;;;;;;;1.80;1.70;;;;;;;-128.00;-1.00;-1.00;18485;306;7504865;-36
2023/08/26 11:40:00;;;;;;;3.20;1.50;;;;;;;-128.00;-1.00;-1.00;18479;295;7506177;-32
2023/08/26 11:42:26;;;;;;;2.80;1.80;;;;;;;-128.00;-1.00;-1.00;18476;295;7505133;-36
2023/08/26 11:44:52;;;;;;;2.20;1.50;;;;;;;-128.00;-1.00;-1.00;18883;295;7504959;-32
2023/08/26 11:47:18;;;;;;;2.00;1.30;;;;;;;-128.00;-1.00;-1.00;18874;295;7504318;-37
2023/08/26 11:49:44;;;;;;;2.40;1.80;;;;;;;-128.00;-1.00;-1.00;18873;295;7504505;-32
2023/08/26 11:52:11;;;;;;;5.90;1.60;;;;;;;-128.00;-1.00;-1.00;18866;339;7504703;-32
2023/08/26 11:54:37;;;;;;;2.40;1.80;;;;;;;-128.00;-1.00;-1.00;18874;296;7504472;-34
2023/08/26 11:57:04;;;;;;;2.90;2.30;;;;;;;-128.00;-1.00;-1.00;18876;295;7504226;-36
2023/08/26 11:59:43;;;;;;;2.20;1.30;;;;;;;-128.00;-1.00;-1.00;18477;295;7505203;-36
2023/08/26 12:02:21;;;;;;;4.00;2.50;;;;;;;-128.00;-1.00;-1.00;18490;339;7506773;-36
2023/08/26 12:04:59;;;;;;;1.60;1.50;;;;;;;-128.00;-1.00;-1.00;18483;295;7505123;-32
2023/08/26 12:07:26;;;;;;;3.00;2.50;;;;;;;-128.00;-1.00;-1.00;18474;339;7504686;-32
2023/08/26 12:09:52;;;;;;;2.50;1.70;;;;;;;-128.00;-1.00;-1.00;18463;346;7504509;-35
2023/08/26 12:12:20;;;;;;;1.30;1.20;;;;;;;-128.00;-1.00;-1.00;18488;287;7506640;-32